Time,TemperatureF,DewpointF,PressureIn,WindDirection,WindDirectionDegrees,WindSpeedMPH,WindSpeedGustMPH,Humidity,HourlyPrecipIn,Conditions,Clouds,dailyrainin,SoftwareType,DateUTC
2013-08-21 00:00:00,63.9,59.6,28.26,South,191,2.0,4.0,86,0.00,,,0.00,Wunderground v.1.15,2013-08-21 04:00:00,
2013-08-21 00:01:00,63.9,60.0,28.26,South,190,2.0,-999.0,86,-99.99,,,0.00,weatherlink.com 1.10,2013-08-21 04:01:00,
2013-08-21 00:16:00,63.8,60.0,28.26,SSW,193,0.0,-999.0,86,-99.99,,,0.00,weatherlink.com 1.10,2013-08-21 04:16:00,
2013-08-21 00:30:00,63.6,59.3,28.26,South,185,1.0,4.0,86,0.00,,,0.00,Wunderground v.1.15,2013-08-21 04:30:00,
2013-08-21 00:47:00,63.4,60.0,28.25,South,190,0.0,-999.0,87,-99.99,,,0.00,weatherlink.com 1.10,2013-08-21 04:47:00,
2013-08-21 01:00:00,63.4,59.5,28.25,SSW,192,2.0,2.0,87,0.00,,,0.00,Wunderground v.1.15,2013-08-21 05:00:00,
2013-08-21 01:16:00,63.4,59.0,28.25,SSW,192,4.0,-999.0,86,-99.99,,,0.00,weatherlink.com 1.10,2013-08-21 05:16:00,
2013-08-21 01:30:00,63.4,59.1,28.25,SSW,195,2.0,4.0,86,0.00,,,0.00,Wunderground v.1.15,2013-08-21 05:30:00,
2013-08-21 01:47:00,63.1,59.0,28.25,South,188,0.0,-999.0,86,-99.99,,,0.00,weatherlink.com 1.10,2013-08-21 05:47:00,
2013-08-21 02:00:00,62.9,59.0,28.25,South,184,0.0,5.0,87,0.00,,,0.00,Wunderground v.1.15,2013-08-21 06:00:00,
2013-08-21 02:18:00,62.5,59.0,28.25,South,187,0.0,-999.0,87,-99.99,,,0.00,weatherlink.com 1.10,2013-08-21 06:18:00,
2013-08-21 02:30:00,62.3,58.4,28.25,South,186,0.0,5.0,87,0.00,,,0.00,Wunderground v.1.15,2013-08-21 06:30:00,
2013-08-21 02:47:00,62.1,59.0,28.25,South,182,0.0,-999.0,88,-99.99,,,0.00,weatherlink.com 1.10,2013-08-21 06:47:00,
2013-08-21 03:00:00,62.3,58.4,28.25,South,183,0.0,5.0,87,0.00,,,0.00,Wunderground v.1.15,2013-08-21 07:00:00,
2013-08-21 03:17:00,62.3,59.0,28.25,South,182,0.0,-999.0,88,-99.99,,,0.00,weatherlink.com 1.10,2013-08-21 07:17:00,
2013-08-21 03:30:00,62.4,58.8,28.25,South,183,0.0,5.0,88,0.00,,,0.00,Wunderground v.1.15,2013-08-21 07:30:00,
2013-08-21 03:48:00,62.4,59.0,28.25,South,183,0.0,-999.0,87,-99.99,,,0.00,weatherlink.com 1.10,2013-08-21 07:48:00,
2013-08-21 04:00:00,62.2,58.6,28.25,South,183,0.0,0.0,88,0.00,,,0.00,Wunderground v.1.15,2013-08-21 08:00:00,
2013-08-21 04:18:00,62.0,59.0,28.25,South,182,0.0,-999.0,88,-99.99,,,0.00,weatherlink.com 1.10,2013-08-21 08:18:00,
2013-08-21 04:30:00,61.8,58.2,28.25,South,182,0.0,0.0,88,0.00,,,0.00,Wunderground v.1.15,2013-08-21 08:30:00,
2013-08-21 04:47:00,61.5,58.0,28.25,South,182,0.0,-999.0,88,-99.99,,,0.00,weatherlink.com 1.10,2013-08-21 08:47:00,
2013-08-21 05:00:00,61.6,58.0,28.25,South,180,0.0,1.0,88,0.00,,,0.00,Wunderground v.1.15,2013-08-21 09:00:00,
2013-08-21 05:18:00,61.5,58.0,28.26,South,182,0.0,-999.0,88,-99.99,,,0.00,weatherlink.com 1.10,2013-08-21 09:18:00,
2013-08-21 05:30:00,61.3,57.7,28.26,South,182,0.0,0.0,88,0.00,,,0.00,Wunderground v.1.15,2013-08-21 09:30:00,
2013-08-21 05:48:00,61.3,58.0,28.26,South,183,0.0,-999.0,88,-99.99,,,0.00,weatherlink.com 1.10,2013-08-21 09:48:00,
2013-08-21 06:00:00,61.1,57.5,28.26,South,184,0.0,0.0,88,0.00,,,0.00,Wunderground v.1.15,2013-08-21 10:00:00,
2013-08-21 06:18:00,61.0,58.0,28.26,South,183,0.0,-999.0,88,-99.99,,,0.00,weatherlink.com 1.10,2013-08-21 10:18:00,
2013-08-21 06:30:00,61.0,57.4,28.26,South,180,0.0,0.0,88,0.00,,,0.00,Wunderground v.1.15,2013-08-21 10:30:00,
2013-08-21 06:48:00,61.4,58.0,28.26,South,178,1.0,-999.0,88,-99.99,,,0.00,weatherlink.com 1.10,2013-08-21 10:48:00,
2013-08-21 07:00:00,61.8,58.2,28.27,South,180,0.0,0.0,88,0.00,,,0.00,Wunderground v.1.15,2013-08-21 11:00:00,
2013-08-21 07:19:00,62.9,59.0,28.26,South,176,1.0,-999.0,88,-99.99,,,0.00,weatherlink.com 1.10,2013-08-21 11:19:00,
2013-08-21 07:30:00,63.5,59.6,28.27,South,178,2.0,2.0,87,0.00,,,0.00,Wunderground v.1.15,2013-08-21 11:30:00,
2013-08-21 07:51:00,65.1,61.0,28.27,South,182,2.0,-999.0,86,-99.99,,,0.00,weatherlink.com 1.10,2013-08-21 11:51:00,
2013-08-21 08:00:00,65.9,61.3,28.27,South,188,2.0,6.0,85,0.00,,,0.00,Wunderground v.1.15,2013-08-21 12:00:00,
2013-08-21 08:19:00,67.2,62.0,28.28,SSW,193,4.0,-999.0,83,-99.99,,,0.00,weatherlink.com 1.10,2013-08-21 12:19:00,
2013-08-21 08:30:00,67.9,61.9,28.28,SSW,198,3.0,6.0,81,0.00,,,0.00,Wunderground v.1.15,2013-08-21 12:30:00,
2013-08-21 08:49:00,69.7,63.0,28.28,SSW,207,0.0,-999.0,80,-99.99,,,0.00,weatherlink.com 1.10,2013-08-21 12:49:00,
2013-08-21 09:00:00,70.6,63.0,28.28,South,190,2.0,6.0,77,0.00,,,0.00,Wunderground v.1.15,2013-08-21 13:00:00,
2013-08-21 09:19:00,72.1,64.0,28.28,SSW,206,0.0,-999.0,76,-99.99,,,0.00,weatherlink.com 1.10,2013-08-21 13:19:00,
2013-08-21 09:30:00,73.0,64.2,28.28,SSW,207,2.0,2.0,74,0.00,,,0.00,Wunderground v.1.15,2013-08-21 13:30:00,
2013-08-21 09:49:00,74.4,65.0,28.29,SW,222,2.0,-999.0,73,-99.99,,,0.00,weatherlink.com 1.10,2013-08-21 13:49:00,
2013-08-21 10:00:00,75.0,65.4,28.29,SW,231,4.0,4.0,72,0.00,,,0.00,Wunderground v.1.15,2013-08-21 14:00:00,
2013-08-21 10:20:00,76.0,66.0,28.29,WSW,239,4.0,-999.0,70,-99.99,,,0.00,weatherlink.com 1.10,2013-08-21 14:20:00,
2013-08-21 10:30:00,76.4,65.9,28.28,SW,225,4.0,4.0,70,0.00,,,0.00,Wunderground v.1.15,2013-08-21 14:30:00,
2013-08-21 10:35:00,76.6,66.0,28.28,WSW,258,4.0,-999.0,70,-99.99,,,0.00,weatherlink.com 1.10,2013-08-21 14:35:00,
2013-08-21 10:50:00,77.1,66.0,28.28,SW,234,4.0,-999.0,68,-99.99,,,0.00,weatherlink.com 1.10,2013-08-21 14:50:00,
2013-08-21 11:00:00,77.6,66.2,28.28,West,259,4.0,4.0,68,0.00,,,0.00,Wunderground v.1.15,2013-08-21 15:00:00,
2013-08-21 11:06:00,77.9,65.0,28.29,SW,221,4.0,-999.0,65,-99.99,,,0.00,weatherlink.com 1.10,2013-08-21 15:06:00,
2013-08-21 11:20:00,78.3,65.0,28.29,West,265,4.0,-999.0,64,-99.99,,,0.00,weatherlink.com 1.10,2013-08-21 15:20:00,
2013-08-21 11:30:00,78.6,66.7,28.28,SSW,202,3.0,10.0,67,0.00,,,0.00,Wunderground v.1.15,2013-08-21 15:30:00,
2013-08-21 11:36:00,78.9,66.0,28.28,WSW,254,5.0,-999.0,64,-99.99,,,0.00,weatherlink.com 1.10,2013-08-21 15:36:00,
2013-08-21 11:50:00,79.3,65.0,28.28,SSW,194,7.0,-999.0,62,-99.99,,,0.00,weatherlink.com 1.10,2013-08-21 15:50:00,
2013-08-21 12:00:00,79.5,66.3,28.28,WSW,257,4.0,4.0,64,0.00,,,0.00,Wunderground v.1.15,2013-08-21 16:00:00,
2013-08-21 12:06:00,79.7,66.0,28.27,SW,234,6.0,-999.0,64,-99.99,,,0.00,weatherlink.com 1.10,2013-08-21 16:06:00,
2013-08-21 12:21:00,80.2,67.0,28.27,SW,230,2.0,-999.0,65,-99.99,,,0.00,weatherlink.com 1.10,2013-08-21 16:21:00,
2013-08-21 12:30:00,80.2,66.5,28.27,SW,218,3.0,14.0,63,0.00,,,0.00,Wunderground v.1.15,2013-08-21 16:30:00,
2013-08-21 12:36:00,80.3,67.0,28.27,WSW,240,0.0,-999.0,63,-99.99,,,0.00,weatherlink.com 1.10,2013-08-21 16:36:00,
2013-08-21 12:51:00,80.8,68.0,28.27,West,273,1.0,-999.0,65,-99.99,,,0.00,weatherlink.com 1.10,2013-08-21 16:51:00,
2013-08-21 13:00:00,80.9,67.1,28.27,WSW,244,2.0,2.0,63,0.00,,,0.00,Wunderground v.1.15,2013-08-21 17:00:00,
2013-08-21 13:06:00,81.2,67.0,28.27,West,260,1.0,-999.0,62,-99.99,,,0.00,weatherlink.com 1.10,2013-08-21 17:06:00,
2013-08-21 13:21:00,81.4,67.0,28.27,WNW,292,2.0,-999.0,61,-99.99,,,0.00,weatherlink.com 1.10,2013-08-21 17:21:00,
2013-08-21 13:30:00,81.4,65.7,28.26,SW,223,3.0,3.0,59,0.00,,,0.00,Wunderground v.1.15,2013-08-21 17:30:00,
2013-08-21 13:36:00,81.6,67.0,28.26,West,272,2.0,-999.0,62,-99.99,,,0.00,weatherlink.com 1.10,2013-08-21 17:36:00,
2013-08-21 13:51:00,80.9,66.0,28.26,West,273,2.0,-999.0,61,-99.99,,,0.00,weatherlink.com 1.10,2013-08-21 17:51:00,
2013-08-21 14:00:00,81.0,66.8,28.26,SW,233,2.0,12.0,62,0.00,,,0.00,Wunderground v.1.15,2013-08-21 18:00:00,
2013-08-21 14:07:00,81.0,67.0,28.25,SW,225,5.0,-999.0,62,-99.99,,,0.00,weatherlink.com 1.10,2013-08-21 18:07:00,
2013-08-21 14:22:00,81.9,67.0,28.25,West,263,4.0,-999.0,61,-99.99,,,0.00,weatherlink.com 1.10,2013-08-21 18:22:00,
2013-08-21 14:30:00,82.5,66.7,28.25,SW,214,3.0,3.0,59,0.00,,,0.00,Wunderground v.1.15,2013-08-21 18:30:00,
2013-08-21 14:37:00,82.5,66.0,28.24,WSW,252,7.0,-999.0,58,-99.99,,,0.00,weatherlink.com 1.10,2013-08-21 18:37:00,
2013-08-21 14:52:00,82.7,67.0,28.24,SW,225,11.0,-999.0,59,-99.99,,,0.00,weatherlink.com 1.10,2013-08-21 18:52:00,
2013-08-21 15:00:00,82.7,65.9,28.23,WSW,252,5.0,5.0,57,0.00,,,0.00,Wunderground v.1.15,2013-08-21 19:00:00,
2013-08-21 15:08:00,82.7,65.0,28.23,SSW,194,5.0,-999.0,56,-99.99,,,0.00,weatherlink.com 1.10,2013-08-21 19:08:00,
2013-08-21 15:23:00,82.7,64.0,28.22,SW,236,4.0,-999.0,54,-99.99,,,0.00,weatherlink.com 1.10,2013-08-21 19:23:00,
2013-08-21 15:30:00,82.9,66.6,28.22,SW,228,4.0,4.0,58,0.00,,,0.00,Wunderground v.1.15,2013-08-21 19:30:00,
2013-08-21 15:38:00,83.1,66.0,28.22,WSW,251,3.0,-999.0,56,-99.99,,,0.00,weatherlink.com 1.10,2013-08-21 19:38:00,
2013-08-21 15:53:00,83.2,66.0,28.22,West,275,4.0,-999.0,56,-99.99,,,0.00,weatherlink.com 1.10,2013-08-21 19:53:00,
2013-08-21 16:00:00,83.3,65.4,28.22,WSW,246,4.0,4.0,55,0.00,,,0.00,Wunderground v.1.15,2013-08-21 20:00:00,
2013-08-21 16:07:00,83.5,66.0,28.21,SW,232,7.0,-999.0,55,-99.99,,,0.00,weatherlink.com 1.10,2013-08-21 20:07:00,
2013-08-21 16:23:00,83.3,65.0,28.20,WSW,254,2.0,-999.0,54,-99.99,,,0.00,weatherlink.com 1.10,2013-08-21 20:23:00,
2013-08-21 16:30:00,83.2,64.3,28.20,WNW,292,3.0,12.0,53,0.00,,,0.00,Wunderground v.1.15,2013-08-21 20:30:00,
2013-08-21 16:38:00,82.8,65.0,28.20,West,261,0.0,-999.0,56,-99.99,,,0.00,weatherlink.com 1.10,2013-08-21 20:38:00,
2013-08-21 16:53:00,82.7,63.0,28.20,WSW,246,6.0,-999.0,52,-99.99,,,0.00,weatherlink.com 1.10,2013-08-21 20:53:00,
2013-08-21 17:00:00,82.6,63.2,28.20,WSW,240,5.0,5.0,52,0.00,,,0.00,Wunderground v.1.15,2013-08-21 21:00:00,
2013-08-21 17:07:00,82.5,64.0,28.20,WSW,257,1.0,-999.0,53,-99.99,,,0.00,weatherlink.com 1.10,2013-08-21 21:07:00,
2013-08-21 17:23:00,82.1,63.0,28.20,WSW,255,11.0,-999.0,53,-99.99,,,0.00,weatherlink.com 1.10,2013-08-21 21:23:00,
2013-08-21 17:30:00,81.8,63.0,28.19,WSW,249,5.0,5.0,53,0.00,,,0.00,Wunderground v.1.15,2013-08-21 21:30:00,
2013-08-21 17:38:00,81.8,65.0,28.19,West,265,1.0,-999.0,56,-99.99,,,0.00,weatherlink.com 1.10,2013-08-21 21:38:00,
2013-08-21 17:53:00,81.6,64.0,28.18,WSW,244,3.0,-999.0,56,-99.99,,,0.00,weatherlink.com 1.10,2013-08-21 21:53:00,
2013-08-21 18:00:00,81.3,64.6,28.19,West,269,4.0,12.0,57,0.00,,,0.00,Wunderground v.1.15,2013-08-21 22:00:00,
2013-08-21 18:07:00,81.1,64.0,28.19,SW,226,5.0,-999.0,57,-99.99,,,0.00,weatherlink.com 1.10,2013-08-21 22:07:00,
2013-08-21 18:23:00,80.6,65.0,28.18,West,269,1.0,-999.0,59,-99.99,,,0.00,weatherlink.com 1.10,2013-08-21 22:23:00,
2013-08-21 18:30:00,80.4,64.8,28.18,West,261,2.0,2.0,59,0.00,,,0.00,Wunderground v.1.15,2013-08-21 22:30:00,
2013-08-21 18:38:00,80.2,64.0,28.18,WSW,248,2.0,-999.0,58,-99.99,,,0.00,weatherlink.com 1.10,2013-08-21 22:38:00,
2013-08-21 18:53:00,79.6,63.0,28.18,SW,222,0.0,-999.0,57,-99.99,,,0.00,weatherlink.com 1.10,2013-08-21 22:53:00,
2013-08-21 19:00:00,79.2,63.1,28.17,SW,222,2.0,12.0,58,0.00,,,0.00,Wunderground v.1.15,2013-08-21 23:00:00,
2013-08-21 19:08:00,78.7,63.0,28.17,SW,230,0.0,-999.0,59,-99.99,,,0.00,weatherlink.com 1.10,2013-08-21 23:08:00,
2013-08-21 19:24:00,77.4,63.0,28.17,SW,223,0.0,-999.0,61,-99.99,,,0.00,weatherlink.com 1.10,2013-08-21 23:24:00,
2013-08-21 19:30:00,76.9,62.9,28.17,SW,226,0.0,12.0,62,0.00,,,0.00,Wunderground v.1.15,2013-08-21 23:30:00,
2013-08-21 19:39:00,76.4,63.0,28.17,WSW,238,0.0,-999.0,64,-99.99,,,0.00,weatherlink.com 1.10,2013-08-21 23:39:00,
2013-08-21 19:54:00,75.6,63.0,28.16,SW,228,0.0,-999.0,66,-99.99,,,0.00,weatherlink.com 1.10,2013-08-21 23:54:00,
2013-08-21 20:00:00,75.3,63.6,28.17,SW,218,0.0,6.0,67,0.00,,,0.00,Wunderground v.1.15,2013-08-22 00:00:00,
2013-08-21 20:09:00,74.6,63.0,28.17,WSW,250,1.0,-999.0,68,-99.99,,,0.00,weatherlink.com 1.10,2013-08-22 00:09:00,
2013-08-21 20:24:00,74.2,63.0,28.16,SW,225,0.0,-999.0,69,-99.99,,,0.00,weatherlink.com 1.10,2013-08-22 00:24:00,
2013-08-21 20:30:00,73.8,63.0,28.16,SW,227,1.0,1.0,69,0.00,,,0.00,Wunderground v.1.15,2013-08-22 00:30:00,
2013-08-21 20:39:00,73.2,63.0,28.16,SW,219,0.0,-999.0,71,-99.99,,,0.00,weatherlink.com 1.10,2013-08-22 00:39:00,
2013-08-21 20:54:00,72.1,63.0,28.17,SSW,203,0.0,-999.0,74,-99.99,,,0.00,weatherlink.com 1.10,2013-08-22 00:54:00,
2013-08-21 21:00:00,71.7,63.4,28.17,SSW,203,0.0,6.0,75,0.00,,,0.00,Wunderground v.1.15,2013-08-22 01:00:00,
2013-08-21 21:09:00,71.0,63.0,28.17,South,188,0.0,-999.0,77,-99.99,,,0.00,weatherlink.com 1.10,2013-08-22 01:09:00,
2013-08-21 21:24:00,69.6,63.0,28.16,South,186,0.0,-999.0,80,-99.99,,,0.00,weatherlink.com 1.10,2013-08-22 01:24:00,
2013-08-21 21:30:00,69.3,63.2,28.16,South,180,0.0,6.0,81,0.00,,,0.00,Wunderground v.1.15,2013-08-22 01:30:00,
2013-08-21 21:40:00,69.1,63.0,28.17,South,181,0.0,-999.0,81,-99.99,,,0.00,weatherlink.com 1.10,2013-08-22 01:40:00,
2013-08-21 21:55:00,68.3,63.0,28.16,South,180,0.0,-999.0,82,-99.99,,,0.00,weatherlink.com 1.10,2013-08-22 01:55:00,
2013-08-21 22:00:00,68.0,62.6,28.17,South,179,0.0,0.0,83,0.00,,,0.00,Wunderground v.1.15,2013-08-22 02:00:00,
2013-08-21 22:10:00,67.5,63.0,28.17,South,188,0.0,-999.0,84,-99.99,,,0.00,weatherlink.com 1.10,2013-08-22 02:10:00,
2013-08-21 22:25:00,67.1,62.0,28.16,South,182,0.0,-999.0,84,-99.99,,,0.00,weatherlink.com 1.10,2013-08-22 02:25:00,
2013-08-21 22:40:00,66.5,62.0,28.16,South,184,0.0,-999.0,85,-99.99,,,0.00,weatherlink.com 1.10,2013-08-22 02:40:00,
2013-08-21 22:55:00,66.4,62.0,28.17,South,184,0.0,-999.0,85,-99.99,,,0.00,weatherlink.com 1.10,2013-08-22 02:55:00,
2013-08-21 23:09:00,66.2,62.0,28.17,South,184,0.0,-999.0,86,-99.99,,,0.00,weatherlink.com 1.10,2013-08-22 03:09:00,
2013-08-21 23:24:00,66.1,62.0,28.17,South,183,0.0,-999.0,85,-99.99,,,0.00,weatherlink.com 1.10,2013-08-22 03:24:00,
2013-08-21 23:30:00,66.2,61.9,28.16,South,182,0.0,0.0,86,0.00,,,0.00,Wunderground v.1.15,2013-08-22 03:30:00,
2013-08-21 23:40:00,66.0,61.0,28.16,South,184,0.0,-999.0,85,-99.99,,,0.00,weatherlink.com 1.10,2013-08-22 03:40:00,
2013-08-21 23:56:00,66.3,62.0,28.16,South,185,0.0,-999.0,85,-99.99,,,0.00,weatherlink.com 1.10,2013-08-22 03:56:00,